createdAt,value
2016-06-15T00:00:54.690Z,0
2016-06-15T00:01:54.882Z,0
2016-06-15T00:02:54.916Z,0
2016-06-15T00:03:54.950Z,0
2016-06-15T00:04:56.094Z,0
2016-06-15T00:05:55.034Z,0
2016-06-15T00:06:55.068Z,0
2016-06-15T00:07:54.946Z,0
2016-06-15T00:08:55.137Z,0
2016-06-15T00:09:55.015Z,0
2016-06-15T00:10:55.222Z,0
2016-06-15T00:11:55.255Z,0
2016-06-15T00:12:55.291Z,0
2016-06-15T00:13:55.168Z,0
2016-06-15T00:14:55.375Z,0
2016-06-15T00:15:55.393Z,0
2016-06-15T00:16:55.287Z,0
2016-06-15T00:17:55.462Z,0
2016-06-15T00:18:55.512Z,0
2016-06-15T00:19:56.874Z,0
2016-06-15T00:20:55.580Z,0
2016-06-15T00:21:55.615Z,0
2016-06-15T00:22:55.649Z,0
2016-06-15T00:23:55.684Z,0
2016-06-15T00:24:55.717Z,0
2016-06-15T00:25:55.627Z,0
2016-06-15T00:26:55.801Z,0
2016-06-15T00:27:55.837Z,0
2016-06-15T00:28:55.870Z,0
2016-06-15T00:29:55.905Z,0
2016-06-15T00:30:55.938Z,0
2016-06-15T00:31:55.989Z,0
2016-06-15T00:32:56.023Z,0
2016-06-15T00:33:56.058Z,0
2016-06-15T00:34:57.529Z,0
2016-06-15T00:35:56.126Z,0
2016-06-15T00:36:56.161Z,0
2016-06-15T00:37:56.210Z,0
2016-06-15T00:38:56.229Z,0
2016-06-15T00:39:56.280Z,0
2016-06-15T00:40:56.314Z,0
2016-06-15T00:41:56.347Z,0
2016-06-15T00:42:56.398Z,0
2016-06-15T00:43:56.448Z,0
2016-06-15T00:44:56.467Z,0
2016-06-15T00:45:56.501Z,0
2016-06-15T00:46:56.535Z,0
2016-06-15T00:47:56.554Z,0
2016-06-15T00:48:56.604Z,0
2016-06-15T00:49:56.888Z,0
2016-06-15T00:50:56.688Z,0
2016-06-15T00:51:56.707Z,0
2016-06-15T00:52:56.741Z,0
2016-06-15T00:53:56.792Z,0
2016-06-15T00:54:56.826Z,0
2016-06-15T00:55:56.891Z,0
2016-06-15T00:56:56.894Z,0
2016-06-15T00:57:56.929Z,0
2016-06-15T00:58:56.853Z,0
2016-06-15T00:59:57.080Z,0
2016-06-15T01:00:57.151Z,0
2016-06-15T01:01:57.237Z,0
2016-06-15T01:02:57.307Z,0
2016-06-15T01:03:57.344Z,0
2016-06-15T01:04:57.422Z,0
2016-06-15T01:05:57.454Z,0
2016-06-15T01:06:57.485Z,0
2016-06-15T01:07:57.548Z,0
2016-06-15T01:08:57.589Z,0
2016-06-15T01:09:57.488Z,0
2016-06-15T01:10:57.667Z,0
2016-06-15T01:11:57.739Z,0
2016-06-15T01:12:57.761Z,0
2016-06-15T01:13:57.658Z,0
2016-06-15T01:14:57.834Z,0
2016-06-15T01:15:57.729Z,0
2016-06-15T01:16:57.906Z,0
2016-06-15T01:17:57.941Z,0
2016-06-15T01:18:57.993Z,0
2016-06-15T01:19:58.715Z,0
2016-06-15T01:20:58.235Z,0
2016-06-15T01:21:58.098Z,0
2016-06-15T01:22:58.133Z,0
2016-06-15T01:23:58.183Z,0
2016-06-15T01:24:58.233Z,0
2016-06-15T01:25:58.252Z,0
2016-06-15T01:26:58.302Z,0
2016-06-15T01:27:58.337Z,0
2016-06-15T01:28:58.354Z,0
2016-06-15T01:29:58.390Z,0
2016-06-15T01:30:58.282Z,0
2016-06-15T01:31:58.458Z,0
2016-06-15T01:32:58.491Z,0
2016-06-15T01:33:58.527Z,0
2016-06-15T01:34:58.935Z,0
2016-06-15T01:35:58.720Z,0
2016-06-15T01:36:58.488Z,0
2016-06-15T01:37:58.523Z,0
2016-06-15T01:38:58.714Z,0
2016-06-15T01:39:58.763Z,0
2016-06-15T01:40:58.798Z,0
2016-06-15T01:41:58.832Z,0
2016-06-15T01:42:58.866Z,0
2016-06-15T01:43:58.900Z,0
2016-06-15T01:44:58.936Z,0
2016-06-15T01:45:58.969Z,0
2016-06-15T01:46:59.019Z,0
2016-06-15T01:47:59.069Z,0
2016-06-15T01:48:59.088Z,0
2016-06-15T01:49:59.716Z,0
2016-06-15T01:50:59.016Z,0
2016-06-15T01:51:59.191Z,0
2016-06-15T01:52:59.225Z,0
2016-06-15T01:53:59.275Z,0
2016-06-15T01:54:59.309Z,0
2016-06-15T01:55:59.359Z,0
2016-06-15T01:56:59.362Z,0
2016-06-15T01:57:59.412Z,0
2016-06-15T01:58:59.446Z,0
2016-06-15T01:59:59.482Z,0
2016-06-15T02:00:59.516Z,0
2016-06-15T02:01:59.550Z,0
2016-06-15T02:02:59.600Z,0
2016-06-15T02:03:59.634Z,0
2016-06-15T02:04:59.512Z,0
2016-06-15T02:05:59.718Z,0
2016-06-15T02:06:59.737Z,0
2016-06-15T02:07:59.631Z,0
2016-06-15T02:08:59.821Z,0
2016-06-15T02:09:59.840Z,0
2016-06-15T02:10:59.421Z,0
2016-06-15T02:11:59.925Z,0
2016-06-15T02:12:59.959Z,0
2016-06-15T02:13:59.993Z,0
2016-06-15T02:15:00.028Z,0
2016-06-15T02:16:00.062Z,0
2016-06-15T02:16:59.956Z,0
2016-06-15T02:18:00.146Z,0
2016-06-15T02:19:00.180Z,0
2016-06-15T02:20:00.058Z,0
2016-06-15T02:21:00.468Z,0
2016-06-15T02:22:00.267Z,0
2016-06-15T02:23:00.318Z,0
2016-06-15T02:24:00.352Z,0
2016-06-15T02:25:00.402Z,0
2016-06-15T02:26:00.436Z,0
2016-06-15T02:27:00.486Z,0
2016-06-15T02:28:00.504Z,0
2016-06-15T02:29:00.368Z,0
2016-06-15T02:30:00.573Z,0
2016-06-15T02:31:00.624Z,0
2016-06-15T02:32:00.657Z,0
2016-06-15T02:33:00.676Z,0
2016-06-15T02:34:00.711Z,0
2016-06-15T02:35:00.761Z,0
2016-06-15T02:36:01.654Z,0
2016-06-15T02:37:00.829Z,0
2016-06-15T02:38:00.863Z,0
2016-06-15T02:39:00.898Z,0
2016-06-15T02:40:00.932Z,0
2016-06-15T02:41:00.825Z,0
2016-06-15T02:42:00.704Z,0
2016-06-15T02:43:01.050Z,0
2016-06-15T02:44:01.070Z,0
2016-06-15T02:45:01.120Z,0
2016-06-15T02:46:01.154Z,0
2016-06-15T02:47:01.204Z,0
2016-06-15T02:48:01.222Z,0
2016-06-15T02:49:01.257Z,0
2016-06-15T02:50:01.291Z,0
2016-06-15T02:51:01.342Z,0
2016-06-15T02:52:01.375Z,0
2016-06-15T02:53:01.426Z,0
2016-06-15T02:54:01.444Z,0
2016-06-15T02:55:01.479Z,0
2016-06-15T02:56:01.497Z,0
2016-06-15T02:57:01.532Z,0
2016-06-15T02:58:01.581Z,0
2016-06-15T02:59:01.631Z,0
2016-06-15T03:00:01.649Z,0
2016-06-15T03:01:01.700Z,0
2016-06-15T03:02:01.719Z,0
2016-06-15T03:03:01.769Z,0
2016-06-15T03:04:01.803Z,0
2016-06-15T03:05:01.821Z,0
2016-06-15T03:06:02.465Z,0
2016-06-15T03:07:01.922Z,0
2016-06-15T03:08:01.941Z,0
2016-06-15T03:09:01.975Z,0
2016-06-15T03:10:02.009Z,0
2016-06-15T03:11:01.886Z,5
2016-06-15T03:12:02.078Z,5
2016-06-15T03:13:02.112Z,5
2016-06-15T03:14:02.162Z,5
2016-06-15T03:15:02.196Z,5
2016-06-15T03:16:02.230Z,5
2016-06-15T03:17:02.265Z,5
2016-06-15T03:18:02.144Z,5
2016-06-15T03:19:02.333Z,5
2016-06-15T03:20:02.367Z,5
2016-06-15T03:21:02.652Z,5
2016-06-15T03:22:02.467Z,5
2016-06-15T03:23:02.501Z,10
2016-06-15T03:24:02.537Z,10
2016-06-15T03:25:02.554Z,10
2016-06-15T03:26:02.589Z,10
2016-06-15T03:27:02.624Z,10
2016-06-15T03:28:02.658Z,10
2016-06-15T03:29:02.692Z,10
2016-06-15T03:30:02.586Z,10
2016-06-15T03:31:02.776Z,10
2016-06-15T03:32:02.795Z,15
2016-06-15T03:33:02.673Z,15
2016-06-15T03:34:02.863Z,15
2016-06-15T03:35:02.914Z,15
2016-06-15T03:36:03.213Z,15
2016-06-15T03:37:02.998Z,15
2016-06-15T03:38:02.861Z,20
2016-06-15T03:39:03.051Z,20
2016-06-15T03:40:03.101Z,20
2016-06-15T03:41:02.964Z,25
2016-06-15T03:42:03.170Z,25
2016-06-15T03:43:03.188Z,25
2016-06-15T03:44:03.223Z,30
2016-06-15T03:45:03.257Z,30
2016-06-15T03:46:03.308Z,30
2016-06-15T03:47:03.341Z,35
2016-06-15T03:48:03.392Z,35
2016-06-15T03:49:03.409Z,35
2016-06-15T03:50:03.445Z,40
2016-06-15T03:51:03.369Z,40
2016-06-15T03:52:03.529Z,40
2016-06-15T03:53:03.562Z,40
2016-06-15T03:54:03.597Z,45
2016-06-15T03:55:03.615Z,45
2016-06-15T03:56:03.650Z,45
2016-06-15T03:57:03.716Z,45
2016-06-15T03:58:03.766Z,45
2016-06-15T03:59:03.785Z,45
2016-06-15T04:00:03.803Z,45
2016-06-15T04:01:03.837Z,45
2016-06-15T04:02:03.888Z,45
2016-06-15T04:03:03.906Z,45
2016-06-15T04:04:03.941Z,45
2016-06-15T04:05:03.990Z,45
2016-06-15T04:06:04.119Z,45
2016-06-15T04:07:04.075Z,45
2016-06-15T04:08:04.109Z,45
2016-06-15T04:09:04.128Z,50
2016-06-15T04:10:04.162Z,50
2016-06-15T04:11:04.212Z,55
2016-06-15T04:12:04.246Z,55
2016-06-15T04:13:04.280Z,55
2016-06-15T04:14:04.315Z,55
2016-06-15T04:15:04.364Z,60
2016-06-15T04:16:04.384Z,60
2016-06-15T04:17:04.417Z,65
2016-06-15T04:18:04.453Z,65
2016-06-15T04:19:04.487Z,65
2016-06-15T04:20:04.521Z,65
2016-06-15T04:21:05.024Z,70
2016-06-15T04:22:04.621Z,70
2016-06-15T04:23:04.655Z,75
2016-06-15T04:24:04.658Z,75
2016-06-15T04:25:04.709Z,75
2016-06-15T04:26:04.727Z,75
2016-06-15T04:27:04.762Z,75
2016-06-15T04:28:04.811Z,75
2016-06-15T04:29:04.862Z,70
2016-06-15T04:30:04.880Z,70
2016-06-15T04:31:04.946Z,65
2016-06-15T04:32:04.964Z,65
2016-06-15T04:33:04.858Z,60
2016-06-15T04:34:05.017Z,60
2016-06-15T04:35:05.051Z,60
2016-06-15T04:36:04.836Z,60
2016-06-15T04:37:05.151Z,55
2016-06-15T04:38:05.185Z,55
2016-06-15T04:39:05.204Z,55
2016-06-15T04:40:05.254Z,60
2016-06-15T04:41:05.274Z,60
2016-06-15T04:42:05.338Z,60
2016-06-15T04:43:05.357Z,60
2016-06-15T04:44:05.235Z,65
2016-06-15T04:45:05.425Z,65
2016-06-15T04:46:05.459Z,70
2016-06-15T04:47:05.495Z,80
2016-06-15T04:48:05.528Z,85
2016-06-15T04:49:05.579Z,90
2016-06-15T04:50:05.613Z,100
2016-06-15T04:51:05.913Z,110
2016-06-15T04:52:05.682Z,115
2016-06-15T04:53:05.716Z,115
2016-06-15T04:54:05.750Z,125
2016-06-15T04:55:05.784Z,125
2016-06-15T04:56:05.834Z,125
2016-06-15T04:57:05.868Z,125
2016-06-15T04:58:05.904Z,130
2016-06-15T04:59:05.937Z,130
2016-06-15T05:00:05.972Z,130
2016-06-15T05:01:06.005Z,130
2016-06-15T05:02:06.041Z,125
2016-06-15T05:03:06.075Z,120
2016-06-15T05:04:06.125Z,120
2016-06-15T05:05:06.159Z,150
2016-06-15T05:06:06.412Z,175
2016-06-15T05:07:06.071Z,145
2016-06-15T05:08:06.262Z,170
2016-06-15T05:09:06.297Z,155
2016-06-15T05:10:06.330Z,155
2016-06-15T05:11:06.381Z,160
2016-06-15T05:12:06.414Z,180
2016-06-15T05:13:06.450Z,165
2016-06-15T05:14:06.484Z,150
2016-06-15T05:15:06.393Z,155
2016-06-15T05:16:06.396Z,165
2016-06-15T05:17:06.602Z,170
2016-06-15T05:18:06.637Z,185
2016-06-15T05:19:06.671Z,200
2016-06-15T05:20:06.706Z,225
2016-06-15T05:21:06.755Z,245
2016-06-15T05:22:06.775Z,300
2016-06-15T05:23:06.823Z,400
2016-06-15T05:24:06.702Z,325
2016-06-15T05:25:06.892Z,330
2016-06-15T05:26:06.927Z,290
2016-06-15T05:27:06.976Z,240
2016-06-15T05:28:07.011Z,220
2016-06-15T05:29:07.046Z,205
2016-06-15T05:30:07.095Z,190
2016-06-15T05:31:07.114Z,185
2016-06-15T05:32:07.008Z,180
2016-06-15T05:33:07.183Z,175
2016-06-15T05:34:07.232Z,180
2016-06-15T05:35:07.282Z,180
2016-06-15T05:36:07.318Z,185
2016-06-15T05:37:07.351Z,185
2016-06-15T05:38:07.369Z,185
2016-06-15T05:39:07.419Z,185
2016-06-15T05:40:07.454Z,180
2016-06-15T05:41:07.503Z,175
2016-06-15T05:42:07.554Z,180
2016-06-15T05:43:07.573Z,180
2016-06-15T05:44:07.622Z,180
2016-06-15T05:45:07.657Z,225
2016-06-15T05:46:07.691Z,195
2016-06-15T05:47:07.570Z,180
2016-06-15T05:48:07.760Z,180
2016-06-15T05:49:07.795Z,185
2016-06-15T05:50:07.860Z,185
2016-06-15T05:51:07.753Z,185
2016-06-15T05:52:08.116Z,190
2016-06-15T05:53:07.948Z,195
2016-06-15T05:54:07.981Z,200
2016-06-15T05:55:08.032Z,215
2016-06-15T05:56:08.065Z,230
2016-06-15T05:57:08.116Z,230
2016-06-15T05:58:08.135Z,235
2016-06-15T05:59:08.200Z,245
2016-06-15T06:00:08.219Z,245
2016-06-15T06:01:08.253Z,235
2016-06-15T06:02:08.287Z,225
2016-06-15T06:03:08.338Z,210
2016-06-15T06:04:08.371Z,200
2016-06-15T06:05:08.422Z,190
2016-06-15T06:06:08.471Z,180
2016-06-15T06:07:08.677Z,175
2016-06-15T06:08:08.525Z,165
2016-06-15T06:09:08.590Z,170
2016-06-15T06:10:08.608Z,155
2016-06-15T06:11:08.643Z,150
2016-06-15T06:12:08.662Z,145
2016-06-15T06:13:08.712Z,145
2016-06-15T06:14:08.778Z,145
2016-06-15T06:15:08.796Z,140
2016-06-15T06:16:08.847Z,140
2016-06-15T06:17:08.864Z,135
2016-06-15T06:18:08.915Z,130
2016-06-15T06:19:08.949Z,130
2016-06-15T06:20:08.999Z,125
2016-06-15T06:21:09.252Z,130
2016-06-15T06:22:09.584Z,135
2016-06-15T06:23:09.087Z,135
2016-06-15T06:24:08.980Z,145
2016-06-15T06:25:09.171Z,150
2016-06-15T06:26:09.221Z,160
2016-06-15T06:27:09.239Z,180
2016-06-15T06:28:09.273Z,180
2016-06-15T06:29:09.308Z,180
2016-06-15T06:30:09.343Z,180
2016-06-15T06:31:09.407Z,185
2016-06-15T06:32:09.427Z,195
2016-06-15T06:33:09.320Z,220
2016-06-15T06:34:09.511Z,245
2016-06-15T06:35:09.545Z,275
2016-06-15T06:36:09.127Z,300
2016-06-15T06:37:09.676Z,305
2016-06-15T06:38:09.647Z,310
2016-06-15T06:39:09.729Z,310
2016-06-15T06:40:09.748Z,310
2016-06-15T06:41:09.782Z,310
2016-06-15T06:42:09.816Z,310
2016-06-15T06:43:09.835Z,315
2016-06-15T06:44:11.479Z,320
2016-06-15T06:45:10.107Z,330
2016-06-15T06:46:10.345Z,330
2016-06-15T06:47:09.831Z,335
2016-06-15T06:48:10.054Z,345
2016-06-15T06:49:10.072Z,345
2016-06-15T06:50:10.123Z,345
2016-06-15T06:51:10.782Z,335
2016-06-15T06:52:10.426Z,320
2016-06-15T06:53:10.241Z,300
2016-06-15T06:54:10.260Z,290
2016-06-15T06:55:10.310Z,275
2016-06-15T06:56:10.345Z,260
2016-06-15T06:57:10.378Z,245
2016-06-15T06:58:10.413Z,240
2016-06-15T06:59:10.462Z,235
2016-06-15T07:00:10.497Z,235
2016-06-15T07:01:10.547Z,225
2016-06-15T07:02:10.582Z,225
2016-06-15T07:03:10.616Z,220
2016-06-15T07:04:10.650Z,220
2016-06-15T07:05:10.684Z,220
2016-06-15T07:06:10.953Z,225
2016-06-15T07:07:11.206Z,235
2016-06-15T07:08:10.818Z,245
2016-06-15T07:09:10.853Z,245
2016-06-15T07:10:10.887Z,250
2016-06-15T07:11:10.921Z,260
2016-06-15T07:12:10.972Z,270
2016-06-15T07:13:11.005Z,280
2016-06-15T07:14:11.040Z,290
2016-06-15T07:15:11.074Z,305
2016-06-15T07:16:11.140Z,310
2016-06-15T07:17:11.159Z,315
2016-06-15T07:18:11.209Z,310
2016-06-15T07:19:11.243Z,310
2016-06-15T07:20:11.293Z,310
2016-06-15T07:21:11.186Z,310
2016-06-15T07:22:11.659Z,310
2016-06-15T07:23:11.411Z,315
2016-06-15T07:24:11.461Z,320
2016-06-15T07:25:11.464Z,330
2016-06-15T07:26:11.499Z,345
2016-06-15T07:27:11.564Z,355
2016-06-15T07:28:11.615Z,370
2016-06-15T07:29:11.633Z,395
2016-06-15T07:30:11.668Z,415
2016-06-15T07:31:11.717Z,435
2016-06-15T07:32:11.752Z,445
2016-06-15T07:33:11.786Z,470
2016-06-15T07:34:11.836Z,490
2016-06-15T07:35:11.854Z,555
2016-06-15T07:36:11.904Z,560
2016-06-15T07:37:11.704Z,560
2016-06-15T07:38:11.848Z,560
2016-06-15T07:39:12.023Z,550
2016-06-15T07:40:12.073Z,560
2016-06-15T07:41:11.952Z,575
2016-06-15T07:42:12.142Z,595
2016-06-15T07:43:12.175Z,620
2016-06-15T07:44:12.242Z,625
2016-06-15T07:45:12.260Z,600
2016-06-15T07:46:12.295Z,515
2016-06-15T07:47:12.360Z,485
2016-06-15T07:48:12.379Z,470
2016-06-15T07:49:12.429Z,465
2016-06-15T07:50:12.479Z,460
2016-06-15T07:51:12.497Z,485
2016-06-15T07:52:12.406Z,515
2016-06-15T07:53:12.598Z,525
2016-06-15T07:54:12.662Z,550
2016-06-15T07:55:12.681Z,555
2016-06-15T07:56:12.560Z,860
2016-06-15T07:57:12.751Z,740
2016-06-15T07:58:12.800Z,745
2016-06-15T07:59:12.693Z,680
2016-06-15T08:00:12.885Z,665
2016-06-15T08:01:12.981Z,635
2016-06-15T08:02:12.953Z,620
2016-06-15T08:03:12.847Z,595
2016-06-15T08:04:12.740Z,615
2016-06-15T08:05:13.087Z,635
2016-06-15T08:06:13.121Z,690
2016-06-15T08:07:13.344Z,725
2016-06-15T08:08:13.221Z,710
2016-06-15T08:09:13.256Z,690
2016-06-15T08:10:13.291Z,680
2016-06-15T08:11:13.324Z,695
2016-06-15T08:12:13.375Z,780
2016-06-15T08:13:13.424Z,955
2016-06-15T08:14:13.459Z,995
2016-06-15T08:15:13.602Z,1215
2016-06-15T08:16:13.559Z,810
2016-06-15T08:17:13.609Z,945
2016-06-15T08:18:13.486Z,850
2016-06-15T08:19:13.536Z,1235
2016-06-15T08:20:13.430Z,815
2016-06-15T08:21:13.777Z,810
2016-06-15T08:22:15.999Z,1045
2016-06-15T08:23:14.908Z,1360
2016-06-15T08:24:16.149Z,1410
2016-06-15T08:25:13.930Z,805
2016-06-15T08:26:13.965Z,1025
2016-06-15T08:27:13.874Z,530
2016-06-15T08:28:13.752Z,445
2016-06-15T08:29:14.130Z,380
2016-06-15T08:30:14.164Z,380
2016-06-15T08:31:14.042Z,325
2016-06-15T08:32:14.217Z,315
2016-06-15T08:33:14.283Z,500
2016-06-15T08:34:14.317Z,1795
2016-06-15T08:35:14.368Z,1975
2016-06-15T08:36:14.417Z,2025
2016-06-15T08:37:14.155Z,1695
2016-06-15T08:38:14.502Z,1480
2016-06-15T08:39:14.379Z,415
2016-06-15T08:40:14.586Z,610
2016-06-15T08:41:14.620Z,480
2016-06-15T08:42:14.670Z,490
2016-06-15T08:43:14.720Z,455
2016-06-15T08:44:14.754Z,455
2016-06-15T08:45:14.804Z,475
2016-06-15T08:46:14.839Z,645
2016-06-15T08:47:14.732Z,1615
2016-06-15T08:48:14.923Z,585
2016-06-15T08:49:14.972Z,850
2016-06-15T08:50:14.913Z,1700
2016-06-15T08:51:15.088Z,1210
2016-06-15T08:52:15.200Z,1790
2016-06-15T08:53:15.141Z,500
2016-06-15T08:54:15.190Z,440
2016-06-15T08:55:15.225Z,460
2016-06-15T08:56:15.275Z,455
2016-06-15T08:57:15.310Z,365
2016-06-15T08:58:15.359Z,325
2016-06-15T08:59:15.425Z,310
2016-06-15T09:00:22.103Z,280
2016-06-15T09:01:15.493Z,250
2016-06-15T09:02:15.529Z,235
2016-06-15T09:03:15.579Z,215
2016-06-15T09:04:15.613Z,210
2016-06-15T09:05:15.506Z,195
2016-06-15T09:06:15.556Z,180
2016-06-15T09:07:15.903Z,160
2016-06-15T09:08:15.797Z,130
2016-06-15T09:09:15.832Z,110
2016-06-15T09:10:15.865Z,95
2016-06-15T09:11:15.790Z,95
2016-06-15T09:12:15.982Z,100
2016-06-15T09:13:24.999Z,110
2016-06-15T09:14:16.013Z,110
2016-06-15T09:15:15.936Z,130
2016-06-15T09:16:16.237Z,155
2016-06-15T09:17:16.162Z,175
2016-06-15T09:18:16.384Z,190
2016-06-15T09:19:16.246Z,180
2016-06-15T09:20:16.280Z,175
2016-06-15T09:21:16.315Z,175
2016-06-15T09:22:18.098Z,195
2016-06-15T09:23:16.399Z,230
2016-06-15T09:24:16.448Z,310
2016-06-15T09:25:16.483Z,440
2016-06-15T09:26:16.517Z,675
2016-06-15T09:27:16.583Z,670
2016-06-15T09:28:16.602Z,780
2016-06-15T09:29:16.630Z,2330
2016-06-15T09:30:16.680Z,2390
2016-06-15T09:31:16.714Z,2475
2016-06-15T09:32:16.593Z,2275
2016-06-15T09:33:16.784Z,1530
2016-06-15T09:34:16.833Z,1430
2016-06-15T09:35:16.915Z,2510
2016-06-15T09:36:16.934Z,2280
2016-06-15T09:37:17.998Z,2540
2016-06-15T09:38:17.017Z,2530
2016-06-15T09:39:17.051Z,645
2016-06-15T09:40:16.930Z,490
2016-06-15T09:41:17.136Z,375
2016-06-15T09:42:17.170Z,270
2016-06-15T09:43:17.220Z,195
2016-06-15T09:44:17.270Z,240
2016-06-15T09:45:17.305Z,235
2016-06-15T09:46:17.354Z,270
2016-06-15T09:47:17.404Z,340
2016-06-15T09:48:17.282Z,500
2016-06-15T09:49:17.520Z,895
2016-06-15T09:50:17.522Z,2405
2016-06-15T09:51:17.433Z,2285
2016-06-15T09:52:18.014Z,2085
2016-06-15T09:53:17.751Z,935
2016-06-15T09:54:17.691Z,2405
2016-06-15T09:55:17.570Z,2570
2016-06-15T09:56:17.776Z,1630
2016-06-15T09:57:17.810Z,445
2016-06-15T09:58:17.860Z,355
2016-06-15T09:59:17.755Z,305
2016-06-15T10:00:17.944Z,280
2016-06-15T10:01:17.838Z,265
2016-06-15T10:02:17.872Z,240
2016-06-15T10:03:18.062Z,215
2016-06-15T10:04:18.131Z,190
2016-06-15T10:05:18.206Z,160
2016-06-15T10:06:18.295Z,140
2016-06-15T10:07:18.668Z,130
2016-06-15T10:08:18.460Z,130
2016-06-15T10:09:18.397Z,135
2016-06-15T10:10:18.602Z,155
2016-06-15T10:11:18.681Z,205
2016-06-15T10:12:18.683Z,255
2016-06-15T10:13:18.748Z,300
2016-06-15T10:14:18.792Z,320
2016-06-15T10:15:18.847Z,330
2016-06-15T10:16:37.449Z,315
2016-06-15T10:17:18.927Z,305
2016-06-15T10:18:31.466Z,315
2016-06-15T10:19:19.020Z,320
2016-06-15T10:20:19.056Z,325
2016-06-15T10:21:19.092Z,325
2016-06-15T10:22:19.019Z,335
2016-06-15T10:23:19.212Z,360
2016-06-15T10:24:19.231Z,380
2016-06-15T10:25:19.267Z,395
2016-06-15T10:26:19.333Z,425
2016-06-15T10:27:19.351Z,495
2016-06-15T10:28:19.386Z,1130
2016-06-15T10:29:19.281Z,720
2016-06-15T10:30:19.471Z,1010
2016-06-15T10:31:19.505Z,1005
2016-06-15T10:32:19.541Z,665
2016-06-15T10:33:19.606Z,555
2016-06-15T10:34:19.626Z,530
2016-06-15T10:35:19.722Z,480
2016-06-15T10:36:47.663Z,450
2016-06-15T10:39:21.516Z,490
2016-06-15T10:41:21.679Z,1085
2016-06-15T10:42:52.698Z,1300
2016-06-15T10:43:09.810Z,1470
2016-06-15T10:44:05.032Z,905
2016-06-15T10:45:04.925Z,1970
2016-06-15T10:46:37.992Z,2360
2016-06-15T10:47:35.838Z,620
2016-06-15T10:49:19.141Z,530
2016-06-15T10:49:58.298Z,485
2016-06-15T10:51:25.085Z,415
2016-06-15T10:52:44.635Z,340
2016-06-15T10:54:21.875Z,295
2016-06-15T10:55:23.816Z,270
2016-06-15T10:55:59.081Z,260
2016-06-15T10:56:36.506Z,245
2016-06-15T10:57:36.540Z,210
2016-06-15T10:58:36.606Z,185
2016-06-15T10:59:36.657Z,150
2016-06-15T11:00:36.675Z,125
2016-06-15T11:01:36.725Z,115
2016-06-15T11:02:36.775Z,100
2016-06-15T11:03:36.638Z,85
2016-06-15T11:04:36.844Z,80
2016-06-15T11:05:36.894Z,80
2016-06-15T11:06:36.929Z,85
2016-06-15T11:07:36.993Z,95
2016-06-15T11:08:37.012Z,110
2016-06-15T11:09:37.047Z,125
2016-06-15T11:10:37.080Z,140
2016-06-15T11:11:37.116Z,160
2016-06-15T11:12:37.009Z,185
2016-06-15T11:13:37.215Z,215
2016-06-15T11:14:37.249Z,260
2016-06-15T11:15:37.300Z,300
2016-06-15T11:16:37.318Z,345
2016-06-15T11:17:37.368Z,380
2016-06-15T11:18:37.403Z,395
2016-06-15T11:19:37.421Z,420
2016-06-15T11:20:37.472Z,505
2016-06-15T11:21:37.522Z,615
2016-06-15T11:22:38.196Z,915
2016-06-15T11:23:37.605Z,1345
2016-06-15T11:24:37.640Z,1170
2016-06-15T11:25:37.533Z,1335
2016-06-15T11:26:37.568Z,935
2016-06-15T11:27:37.758Z,685
2016-06-15T11:28:37.807Z,1400
2016-06-15T11:29:37.686Z,1490
2016-06-15T11:30:37.721Z,1575
2016-06-15T11:31:37.755Z,1695
2016-06-15T11:32:37.961Z,1915
2016-06-15T11:33:37.995Z,2115
2016-06-15T11:34:38.061Z,2290
2016-06-15T11:35:38.096Z,2435
2016-06-15T11:36:38.130Z,2455
2016-06-15T11:37:38.210Z,2470
2016-06-15T11:38:38.229Z,2405
2016-06-15T11:39:38.138Z,2450
2016-06-15T11:40:38.313Z,2440
2016-06-15T11:41:38.348Z,2465
2016-06-15T11:42:38.258Z,2505
2016-06-15T11:43:38.448Z,2575
2016-06-15T11:44:38.498Z,2620
2016-06-15T11:45:38.751Z,2545
2016-06-15T11:46:38.614Z,2120
2016-06-15T11:47:38.648Z,2480
2016-06-15T11:48:38.682Z,2515
2016-06-15T11:49:38.733Z,2395
2016-06-15T11:50:38.797Z,1910
2016-06-15T11:51:38.832Z,1310
2016-06-15T11:52:38.757Z,1680
2016-06-15T11:53:38.932Z,620
2016-06-15T11:54:38.998Z,835
2016-06-15T11:55:39.031Z,1120
2016-06-15T11:56:38.769Z,1915
2016-06-15T11:57:39.116Z,510
2016-06-15T11:58:39.166Z,710
2016-06-15T11:59:39.217Z,2085
2016-06-15T12:00:39.250Z,2350
2016-06-15T12:01:39.317Z,2505
2016-06-15T12:02:39.366Z,2280
2016-06-15T12:03:39.432Z,1585
2016-06-15T12:04:39.451Z,535
2016-06-15T12:05:39.499Z,435
2016-06-15T12:06:39.535Z,505
2016-06-15T12:07:40.052Z,1740
2016-06-15T12:08:39.634Z,1945
2016-06-15T12:09:39.669Z,1640
2016-06-15T12:10:39.734Z,1195
2016-06-15T12:11:39.768Z,1165
2016-06-15T12:12:39.865Z,735
2016-06-15T12:13:39.868Z,700
2016-06-15T12:14:39.919Z,520
2016-06-15T12:15:39.813Z,385
2016-06-15T12:16:40.002Z,535
2016-06-15T12:17:40.052Z,255
2016-06-15T12:18:39.947Z,215
2016-06-15T12:19:40.184Z,145
2016-06-15T12:20:40.203Z,120
2016-06-15T12:21:40.237Z,105
2016-06-15T12:22:40.130Z,95
2016-06-15T12:23:40.149Z,90
2016-06-15T12:24:40.355Z,80
2016-06-15T12:25:40.265Z,75
2016-06-15T12:26:40.439Z,70
2016-06-15T12:27:40.489Z,60
2016-06-15T12:28:40.524Z,60
2016-06-15T12:29:40.574Z,55
2016-06-15T12:30:40.609Z,45
2016-06-15T12:31:40.659Z,45
2016-06-15T12:32:40.692Z,45
2016-06-15T12:33:40.742Z,45
2016-06-15T12:34:40.777Z,50
2016-06-15T12:35:40.827Z,55
2016-06-15T12:36:40.548Z,55
2016-06-15T12:37:40.598Z,60
2016-06-15T12:38:40.945Z,60
2016-06-15T12:39:40.964Z,60
2016-06-15T12:40:41.015Z,60
2016-06-15T12:41:41.064Z,60
2016-06-15T12:42:41.129Z,60
2016-06-15T12:43:41.132Z,60
2016-06-15T12:44:41.183Z,55
2016-06-15T12:45:41.217Z,55
2016-06-15T12:46:41.251Z,55
2016-06-15T12:47:41.129Z,55
2016-06-15T12:48:41.335Z,55
2016-06-15T12:49:41.245Z,60
2016-06-15T12:50:41.404Z,60
2016-06-15T12:51:41.454Z,65
2016-06-15T12:52:42.598Z,65
2016-06-15T12:53:41.538Z,75
2016-06-15T12:54:41.573Z,90
2016-06-15T12:55:41.450Z,105
2016-06-15T12:56:41.656Z,120
2016-06-15T12:57:41.706Z,140
2016-06-15T12:58:41.742Z,165
2016-06-15T12:59:41.760Z,190
2016-06-15T13:00:41.810Z,215
2016-06-15T13:01:41.704Z,245
2016-06-15T13:02:41.879Z,290
2016-06-15T13:03:41.928Z,335
2016-06-15T13:04:41.963Z,365
2016-06-15T13:05:42.013Z,365
2016-06-15T13:06:42.062Z,350
2016-06-15T13:07:43.112Z,370
2016-06-15T13:08:42.334Z,415
2016-06-15T13:09:42.010Z,1070
2016-06-15T13:10:42.637Z,2045
2016-06-15T13:11:42.249Z,2120
2016-06-15T13:12:42.300Z,2110
2016-06-15T13:13:42.396Z,2210
2016-06-15T13:14:42.619Z,2180
2016-06-15T13:15:42.637Z,2230
2016-06-15T13:16:43.125Z,2295
2016-06-15T13:17:42.737Z,2300
2016-06-15T13:18:42.553Z,2295
2016-06-15T13:19:42.602Z,2300
2016-06-15T13:20:43.106Z,2315
2016-06-15T13:21:42.968Z,2345
2016-06-15T13:22:43.393Z,2365
2016-06-15T13:23:42.819Z,2375
2016-06-15T13:24:43.258Z,2310
2016-06-15T13:25:43.121Z,2250
2016-06-15T13:26:43.328Z,2250
2016-06-15T13:27:43.831Z,2250
2016-06-15T13:28:43.254Z,2215
2016-06-15T13:29:43.102Z,2100
2016-06-15T13:30:43.121Z,2040
2016-06-15T13:31:43.218Z,1915
2016-06-15T13:32:43.236Z,1955
2016-06-15T13:33:43.302Z,2055
2016-06-15T13:34:43.837Z,2085
2016-06-15T13:35:43.589Z,2070
2016-06-15T13:36:43.421Z,1960
2016-06-15T13:37:45.112Z,1490
2016-06-15T13:38:43.755Z,825
2016-06-15T13:39:43.585Z,330
2016-06-15T13:40:43.839Z,300
2016-06-15T13:41:43.717Z,735
2016-06-15T13:42:43.705Z,740
2016-06-15T13:43:43.989Z,685
2016-06-15T13:44:44.055Z,865
2016-06-15T13:45:43.886Z,945
2016-06-15T13:46:43.920Z,840
2016-06-15T13:47:43.971Z,755
2016-06-15T13:48:44.239Z,655
2016-06-15T13:49:44.039Z,570
2016-06-15T13:50:43.948Z,525
2016-06-15T13:51:44.138Z,495
2016-06-15T13:52:45.704Z,445
2016-06-15T13:53:44.332Z,420
2016-06-15T13:54:44.289Z,400
2016-06-15T13:55:44.338Z,305
2016-06-15T13:56:44.373Z,280
2016-06-15T13:57:44.423Z,305
2016-06-15T13:58:44.472Z,255
2016-06-15T13:59:44.522Z,260
2016-06-15T14:00:44.557Z,285
2016-06-15T14:01:44.606Z,305
2016-06-15T14:02:44.657Z,315
2016-06-15T14:03:44.706Z,310
2016-06-15T14:04:44.741Z,310
2016-06-15T14:05:44.776Z,305